Wetterdaten: Woche 08.03.10 - 14.03.10 (KW10)
Datum Zeit Temp. A. Feuchte A. Luftdruck Regen Wind Richtung Taupunkt Windchill Windben
08.03.2010 00:00 -4,2 C 63 % 1028,3 hPa 0,0 l/m 1,5 km/h W -10,2 C -4,2 C 6,4 km/h
08.03.2010 01:00 -5,0 C 65 % 1028,1 hPa 0,0 l/m 1,0 km/h SW -10,6 C -5,0 C 5,2 km/h
08.03.2010 02:00 -6,2 C 68 % 1027,9 hPa 0,0 l/m 0,1 km/h N -11,1 C -6,2 C 1,6 km/h
08.03.2010 03:00 -6,8 C 72 % 1027,4 hPa 0,0 l/m 0,4 km/h SW -11,0 C -6,8 C 2,8 km/h
08.03.2010 04:00 -6,5 C 71 % 1026,8 hPa 0,0 l/m 2,0 km/h SW -10,8 C -6,5 C 6,8 km/h
08.03.2010 05:00 -7,0 C 70 % 1026,5 hPa 0,0 l/m 0,1 km/h N -11,5 C -7,0 C 1,2 km/h
08.03.2010 06:00 -7,9 C 74 % 1026,5 hPa 0,0 l/m 0,1 km/h N -11,8 C -7,9 C 0,8 km/h
08.03.2010 07:00 -7,5 C 77 % 1026,7 hPa 0,0 l/m 0,0 km/h N-NW -10,9 C -7,5 C 1,2 km/h
08.03.2010 08:00 -4,8 C 74 % 1026,7 hPa 0,0 l/m 2,0 km/h N-NW -8,8 C -4,8 C 7,2 km/h
08.03.2010 09:00 -3,8 C 68 % 1026,5 hPa 0,0 l/m 2,6 km/h NO -8,7 C -3,8 C 7,2 km/h
08.03.2010 10:00 -2,5 C 61 % 1025,9 hPa 0,0 l/m 2,5 km/h NO -9,0 C -2,5 C 6,8 km/h
08.03.2010 11:00 -1,3 C 52 % 1025,3 hPa 0,0 l/m 3,9 km/h O-NO -9,9 C -1,3 C 11,7 km/h
08.03.2010 12:00 -0,5 C 51 % 1024,5 hPa 0,0 l/m 6,1 km/h O-NO -9,5 C -0,8 C 17,7 km/h
08.03.2010 13:00 -0,6 C 49 % 1023,7 hPa 0,0 l/m 4,1 km/h N-NO -9,9 C -0,6 C 13,3 km/h
08.03.2010 14:00 -0,2 C 45 % 1023,2 hPa 0,0 l/m 6,0 km/h O-NO -10,6 C -0,5 C 15,7 km/h
08.03.2010 15:00 -0,7 C 49 % 1023,0 hPa 0,0 l/m 4,9 km/h NO -10,1 C -0,7 C 11,7 km/h
08.03.2010 16:00 -1,4 C 55 % 1023,1 hPa 0,0 l/m 4,6 km/h O-NO -9,4 C -1,4 C 12,5 km/h
08.03.2010 17:00 -1,6 C 54 % 1023,3 hPa 0,0 l/m 3,3 km/h O-NO -9,6 C -1,6 C 9,7 km/h
08.03.2010 18:00 -3,3 C 60 % 1023,6 hPa 0,0 l/m 0,0 km/h N -9,9 C -3,3 C 0,0 km/h
08.03.2010 19:00 -4,3 C 65 % 1023,5 hPa 0,0 l/m 0,0 km/h N -10,0 C -4,3 C 1,2 km/h
08.03.2010 20:00 -4,5 C 66 % 1023,4 hPa 0,0 l/m 0,5 km/h N -9,8 C -4,5 C 2,4 km/h
08.03.2010 21:00 -4,6 C 68 % 1023,4 hPa 0,0 l/m 0,3 km/h N -9,7 C -4,6 C 2,8 km/h
08.03.2010 22:00 -5,1 C 73 % 1023,2 hPa 0,0 l/m 0,5 km/h N -9,1 C -5,1 C 4,0 km/h
08.03.2010 23:00 -4,7 C 74 % 1022,8 hPa 0,0 l/m 0,2 km/h N -8,6 C -4,7 C 2,4 km/h
09.03.2010 00:00 -4,6 C 74 % 1022,7 hPa 0,0 l/m 0,3 km/h N -8,5 C -4,6 C 3,6 km/h
09.03.2010 01:00 -4,0 C 73 % 1022,4 hPa 0,0 l/m 0,7 km/h W -8,2 C -4,0 C 4,0 km/h
09.03.2010 02:00 -3,9 C 72 % 1022,1 hPa 0,0 l/m 1,3 km/h NW -8,2 C -3,9 C 4,8 km/h
09.03.2010 03:00 -4,3 C 72 % 1022,0 hPa 0,0 l/m 1,9 km/h NW -8,5 C -4,3 C 5,6 km/h
09.03.2010 04:00 -5,2 C 74 % 1022,2 hPa 0,0 l/m 0,6 km/h N -9,1 C -5,2 C 3,2 km/h
09.03.2010 05:00 -5,6 C 76 % 1022,3 hPa 0,0 l/m 1,1 km/h NW -9,2 C -5,6 C 4,8 km/h
09.03.2010 06:00 -5,9 C 77 % 1023,0 hPa 0,0 l/m 1,2 km/h NW -9,2 C -5,9 C 4,4 km/h
09.03.2010 07:00 -5,5 C 75 % 1023,4 hPa 0,0 l/m 2,8 km/h NW -9,2 C -5,5 C 7,2 km/h
09.03.2010 08:00 -4,8 C 70 % 1023,9 hPa 0,0 l/m 3,8 km/h N-NW -9,5 C -4,8 C 10,5 km/h
09.03.2010 09:00 -3,7 C 60 % 1024,3 hPa 0,0 l/m 4,1 km/h NW -10,4 C -3,7 C 9,7 km/h
09.03.2010 10:00 -2,7 C 55 % 1024,4 hPa 0,0 l/m 3,8 km/h NW -10,5 C -2,7 C 10,5 km/h
09.03.2010 11:00 -1,3 C 49 % 1024,6 hPa 0,0 l/m 4,1 km/h NO -10,7 C -1,3 C 12,9 km/h
09.03.2010 12:00 0,5 C 42 % 1024,3 hPa 0,0 l/m 4,8 km/h NO -10,9 C 0,5 C 13,7 km/h
09.03.2010 13:00 1,5 C 39 % 1023,8 hPa 0,0 l/m 4,8 km/h NO -10,9 C 1,5 C 14,5 km/h
09.03.2010 14:00 1,8 C 32 % 1023,3 hPa 0,0 l/m 6,4 km/h NO -13,3 C 1,8 C 16,1 km/h
09.03.2010 15:00 1,8 C 33 % 1023,1 hPa 0,0 l/m 6,4 km/h NO -13,0 C 1,8 C 16,1 km/h
09.03.2010 16:00 1,8 C 34 % 1023,6 hPa 0,0 l/m 5,6 km/h NO -12,6 C 1,8 C 13,7 km/h
09.03.2010 17:00 0,8 C 35 % 1023,8 hPa 0,0 l/m 2,4 km/h NO -12,9 C 0,8 C 11,3 km/h
09.03.2010 18:00 0,0 C 41 % 1024,6 hPa 0,0 l/m 3,2 km/h NO -11,6 C 0,0 C 11,3 km/h
09.03.2010 19:00 -0,6 C 45 % 1025,8 hPa 0,0 l/m 4,8 km/h NO -11,2 C -0,6 C 16,9 km/h
09.03.2010 20:00 -1,5 C 50 % 1026,7 hPa 0,0 l/m 3,2 km/h N-NO -10,7 C -1,5 C 12,1 km/h
09.03.2010 21:00 -2,0 C 53 % 1027,3 hPa 0,0 l/m 1,6 km/h N-NO -10,3 C -2,0 C 11,3 km/h
09.03.2010 22:00 -2,6 C 56 % 1027,3 hPa 0,0 l/m 3,2 km/h NO -10,1 C -2,6 C 12,9 km/h
09.03.2010 23:00 -3,3 C 60 % 1026,9 hPa 0,0 l/m 1,6 km/h N-NW -10,0 C -3,3 C 7,2 km/h
10.03.2010 00:00 -4,3 C 63 % 1026,9 hPa 0,0 l/m 0,0 km/h N -10,4 C -4,3 C 4,0 km/h
10.03.2010 01:00 -5,8 C 69 % 1026,8 hPa 0,0 l/m 0,0 km/h N -10,6 C -5,8 C 0,8 km/h
10.03.2010 02:00 -6,7 C 74 % 1026,3 hPa 0,0 l/m 0,0 km/h N -10,6 C -6,7 C 0,8 km/h
10.03.2010 03:00 -7,2 C 76 % 1026,1 hPa 0,0 l/m 0,0 km/h N -10,7 C -7,2 C 0,0 km/h
10.03.2010 04:00 -7,1 C 76 % 1026,1 hPa 0,0 l/m 0,0 km/h N -10,5 C -7,1 C 2,4 km/h
10.03.2010 05:00 -7,3 C 77 % 1025,9 hPa 0,0 l/m 0,0 km/h N -10,8 C -7,3 C 3,2 km/h
10.03.2010 06:00 -7,7 C 78 % 1025,8 hPa 0,0 l/m 0,0 km/h N -10,9 C -7,7 C 3,2 km/h
10.03.2010 07:00 -6,6 C 77 % 1026,2 hPa 0,0 l/m 0,0 km/h N -10,0 C -6,6 C 2,1 km/h
10.03.2010 08:00 -4,3 C 70 % 1026,4 hPa 0,0 l/m 0,3 km/h N -9,0 C -4,3 C 2,0 km/h
10.03.2010 09:00 -3,0 C 62 % 1026,4 hPa 0,0 l/m 2,1 km/h O -9,3 C -3,0 C 6,4 km/h
10.03.2010 10:00 -2,3 C 59 % 1026,3 hPa 0,0 l/m 3,7 km/h O -9,3 C -2,3 C 9,3 km/h
10.03.2010 11:00 -1,0 C 55 % 1025,8 hPa 0,0 l/m 3,1 km/h O-NO -9,0 C -1,0 C 8,4 km/h
10.03.2010 12:00 0,6 C 52 % 1024,8 hPa 0,0 l/m 4,9 km/h O -8,2 C 0,6 C 12,9 km/h
10.03.2010 13:00 1,8 C 49 % 1023,4 hPa 0,0 l/m 7,8 km/h O -7,9 C 0,4 C 18,1 km/h
10.03.2010 14:00 2,9 C 46 % 1022,3 hPa 0,0 l/m 6,5 km/h SO -7,5 C 2,6 C 14,1 km/h
10.03.2010 15:00 3,1 C 46 % 1021,6 hPa 0,0 l/m 5,4 km/h O-SO -7,3 C 3,2 C 14,1 km/h
10.03.2010 16:00 3,1 C 47 % 1020,9 hPa 0,0 l/m 4,0 km/h SO -7,2 C 3,1 C 10,9 km/h
10.03.2010 17:00 2,7 C 48 % 1020,6 hPa 0,0 l/m 1,3 km/h SO -7,2 C 2,7 C 6,0 km/h
10.03.2010 18:00 2,2 C 50 % 1020,2 hPa 0,0 l/m 0,1 km/h N -7,2 C 2,2 C 2,0 km/h
10.03.2010 19:00 1,3 C 54 % 1019,8 hPa 0,0 l/m 0,0 km/h N -6,9 C 1,3 C 0,8 km/h
10.03.2010 20:00 0,5 C 59 % 1019,5 hPa 0,0 l/m 0,2 km/h N -6,5 C 0,5 C 1,6 km/h
10.03.2010 21:00 1,0 C 55 % 1019,2 hPa 0,0 l/m 0,2 km/h N -7,0 C 1,0 C 1,6 km/h
10.03.2010 22:00 0,8 C 58 % 1018,7 hPa 0,0 l/m 1,1 km/h S-SO -6,5 C 0,8 C 5,6 km/h
10.03.2010 23:00 0,3 C 69 % 1017,8 hPa 0,0 l/m 1,8 km/h S -4,8 C 0,3 C 8,9 km/h
11.03.2010 00:00 -0,2 C 78 % 1017,1 hPa 0,0 l/m 0,4 km/h N -3,5 C -0,2 C 4,4 km/h
11.03.2010 01:00 -0,4 C 83 % 1016,6 hPa 0,0 l/m 0,5 km/h N -2,9 C -0,4 C 5,2 km/h
11.03.2010 02:00 -0,6 C 86 % 1015,9 hPa 0,0 l/m 0,3 km/h N -2,7 C -0,6 C 2,4 km/h
11.03.2010 03:00 -0,7 C 86 % 1015,3 hPa 0,0 l/m 0,1 km/h N -2,7 C -0,7 C 2,0 km/h
11.03.2010 04:00 -1,0 C 88 % 1014,8 hPa 0,0 l/m 0,0 km/h N -2,8 C -1,0 C 0,0 km/h
11.03.2010 05:00 -1,2 C 89 % 1014,5 hPa 0,0 l/m 0,7 km/h O-SO -2,8 C -1,2 C 3,6 km/h
11.03.2010 06:00 -1,3 C 89 % 1014,3 hPa 0,0 l/m 0,5 km/h O-SO -2,9 C -1,3 C 2,4 km/h
11.03.2010 07:00 -1,3 C 89 % 1014,3 hPa 0,0 l/m 0,1 km/h N -2,8 C -1,3 C 2,4 km/h
11.03.2010 08:00 -1,0 C 89 % 1014,4 hPa 0,0 l/m 0,1 km/h N -2,6 C -1,0 C 2,4 km/h
11.03.2010 09:00 -0,6 C 89 % 1014,1 hPa 0,0 l/m 0,8 km/h O -2,1 C -0,6 C 3,6 km/h
11.03.2010 10:00 -0,1 C 89 % 1013,7 hPa 0,0 l/m 2,3 km/h O -1,8 C -0,1 C 6,4 km/h
11.03.2010 11:00 0,2 C 85 % 1013,4 hPa 0,8 l/m 2,4 km/h O-SO -2,1 C 0,2 C 5,6 km/h
11.03.2010 12:00 0,3 C 84 % 1013,2 hPa 0,5 l/m 0,4 km/h N -2,1 C 0,3 C 2,8 km/h
11.03.2010 13:00 0,6 C 84 % 1012,8 hPa 0,3 l/m 0,0 km/h N -1,8 C 0,6 C 0,0 km/h
11.03.2010 14:00 1,0 C 84 % 1012,6 hPa 0,3 l/m 0,0 km/h N -1,4 C 1,0 C 0,0 km/h
11.03.2010 15:00 1,1 C 84 % 1012,4 hPa 0,0 l/m 0,1 km/h N -1,4 C 1,1 C 1,2 km/h
11.03.2010 16:00 0,8 C 84 % 1012,3 hPa 0,0 l/m 0,4 km/h N -1,6 C 0,8 C 2,4 km/h
11.03.2010 17:00 0,6 C 84 % 1012,4 hPa 0,0 l/m 0,5 km/h N-NW -1,8 C 0,6 C 3,6 km/h
11.03.2010 18:00 0,6 C 85 % 1012,8 hPa 0,0 l/m 0,9 km/h N -1,7 C 0,6 C 3,6 km/h
11.03.2010 19:00 0,4 C 86 % 1013,0 hPa 0,0 l/m 0,4 km/h N -1,8 C 0,4 C 2,8 km/h
11.03.2010 20:00 0,3 C 85 % 1013,1 hPa 0,0 l/m 0,7 km/h NW -2,0 C 0,3 C 4,0 km/h
11.03.2010 21:00 0,2 C 83 % 1013,2 hPa 0,0 l/m 1,8 km/h NW -2,4 C 0,2 C 6,4 km/h
11.03.2010 22:00 0,5 C 82 % 1013,0 hPa 0,3 l/m 3,1 km/h NW -2,3 C 0,5 C 10,4 km/h
11.03.2010 23:00 0,6 C 81 % 1012,8 hPa 0,0 l/m 5,3 km/h N-NW -2,2 C 0,5 C 15,7 km/h
12.03.2010 00:00 0,4 C 82 % 1012,8 hPa 0,0 l/m 5,8 km/h NW -2,3 C 0,2 C 16,5 km/h
12.03.2010 01:00 -0,5 C 81 % 1013,2 hPa 0,0 l/m 7,3 km/h N-NW -3,4 C -1,8 C 21,3 km/h
12.03.2010 02:00 -0,7 C 81 % 1013,1 hPa 0,0 l/m 4,3 km/h NW -3,5 C -0,7 C 12,1 km/h
12.03.2010 03:00 -0,8 C 82 % 1012,9 hPa 0,0 l/m 5,6 km/h W -3,5 C -0,8 C 15,3 km/h
12.03.2010 04:00 -0,6 C 82 % 1013,0 hPa 0,0 l/m 5,1 km/h NW -3,3 C -0,6 C 14,1 km/h
12.03.2010 05:00 -0,2 C 77 % 1013,4 hPa 0,0 l/m 6,0 km/h W-NW -3,7 C -0,4 C 18,5 km/h
12.03.2010 06:00 -0,1 C 76 % 1013,8 hPa 0,0 l/m 5,5 km/h NW -3,8 C -0,2 C 18,9 km/h
12.03.2010 07:00 0,1 C 75 % 1014,3 hPa 0,0 l/m 5,9 km/h W -3,8 C -0,2 C 20,1 km/h
12.03.2010 08:00 0,6 C 76 % 1014,8 hPa 0,0 l/m 6,4 km/h W-NW -3,1 C 0,4 C 21,7 km/h
12.03.2010 09:00 1,5 C 70 % 1014,8 hPa 0,0 l/m 9,0 km/h W-NW -3,3 C -0,9 C 27,0 km/h
12.03.2010 10:00 2,4 C 64 % 1014,6 hPa 0,3 l/m 12,6 km/h W-SW -3,7 C -2,6 C 27,4 km/h
12.03.2010 11:00 2,9 C 61 % 1014,7 hPa 0,0 l/m 14,0 km/h W -3,9 C -2,9 C 33,0 km/h
12.03.2010 12:00 3,8 C 56 % 1014,7 hPa 0,0 l/m 11,9 km/h W-SW -4,1 C -0,5 C 27,8 km/h
12.03.2010 13:00 4,3 C 55 % 1014,3 hPa 0,3 l/m 11,3 km/h W-NW -3,9 C 0,5 C 27,4 km/h
12.03.2010 14:00 4,3 C 57 % 1014,4 hPa 0,0 l/m 11,3 km/h W -3,6 C 0,4 C 28,6 km/h
12.03.2010 15:00 3,6 C 58 % 1014,5 hPa 0,0 l/m 11,4 km/h W -3,8 C -0,4 C 29,0 km/h
12.03.2010 16:00 2,9 C 61 % 1014,4 hPa 0,0 l/m 12,4 km/h W -3,8 C -1,9 C 32,2 km/h
12.03.2010 17:00 2,1 C 67 % 1014,8 hPa 0,0 l/m 14,5 km/h W-NW -3,4 C -4,1 C 36,6 km/h
12.03.2010 18:00 1,8 C 70 % 1015,3 hPa 0,0 l/m 14,0 km/h W-SW -3,1 C -4,2 C 35,4 km/h
12.03.2010 19:00 1,9 C 70 % 1015,8 hPa 0,0 l/m 11,0 km/h N-NW -3,0 C -2,1 C 29,4 km/h
12.03.2010 20:00 1,8 C 73 % 1016,3 hPa 0,0 l/m 9,8 km/h W -2,5 C -1,4 C 25,3 km/h
12.03.2010 21:00 2,0 C 74 % 1016,4 hPa 0,0 l/m 8,1 km/h W -2,2 C 0,4 C 22,9 km/h
12.03.2010 22:00 2,1 C 74 % 1016,5 hPa 0,0 l/m 8,9 km/h W-SW -2,1 C -0,2 C 22,5 km/h
12.03.2010 23:00 2,2 C 74 % 1016,5 hPa 0,0 l/m 9,9 km/h W-SW -2,0 C -0,9 C 26,1 km/h
13.03.2010 00:00 2,3 C 73 % 1016,5 hPa 0,0 l/m 9,6 km/h W -2,1 C -0,7 C 29,8 km/h
13.03.2010 01:00 2,3 C 71 % 1016,5 hPa 0,0 l/m 8,7 km/h NW -2,3 C 0,2 C 23,3 km/h
13.03.2010 02:00 2,6 C 69 % 1016,5 hPa 0,0 l/m 8,5 km/h W-NW -2,5 C 0,6 C 24,9 km/h
13.03.2010 03:00 2,3 C 71 % 1016,4 hPa 0,0 l/m 8,1 km/h W -2,5 C 0,7 C 27,0 km/h
13.03.2010 04:00 2,3 C 71 % 1016,7 hPa 0,0 l/m 9,5 km/h W-NW -2,5 C -0,6 C 23,3 km/h
13.03.2010 05:00 2,3 C 73 % 1017,3 hPa 0,0 l/m 10,3 km/h W -2,1 C -1,2 C 29,8 km/h
13.03.2010 06:00 2,3 C 73 % 1017,3 hPa 0,0 l/m 10,4 km/h W-SW -2,0 C -1,2 C 27,8 km/h
13.03.2010 07:00 2,6 C 70 % 1017,2 hPa 0,0 l/m 12,7 km/h SW -2,3 C -2,5 C 31,4 km/h
13.03.2010 08:00 3,3 C 68 % 1017,5 hPa 0,0 l/m 12,6 km/h W-NW -2,1 C -1,5 C 36,2 km/h
13.03.2010 09:00 4,0 C 66 % 1017,8 hPa 0,0 l/m 14,2 km/h W-SW -1,8 C -1,6 C 35,8 km/h
13.03.2010 10:00 4,6 C 64 % 1018,0 hPa 0,0 l/m 13,8 km/h NW -1,5 C -0,7 C 35,8 km/h
13.03.2010 11:00 4,6 C 64 % 1018,1 hPa 0,0 l/m 15,0 km/h W-SW -1,5 C -1,3 C 33,8 km/h
13.03.2010 12:00 5,4 C 63 % 1018,1 hPa 0,0 l/m 13,7 km/h S -1,2 C 0,3 C 36,6 km/h
13.03.2010 13:00 6,0 C 62 % 1017,7 hPa 0,0 l/m 15,8 km/h SW -0,8 C -0,0 C 37,0 km/h
13.03.2010 14:00 5,4 C 63 % 1017,7 hPa 0,0 l/m 16,9 km/h NW -1,1 C -1,2 C 41,4 km/h
13.03.2010 15:00 5,2 C 65 % 1017,4 hPa 0,0 l/m 13,5 km/h W -0,9 C 0,1 C 36,6 km/h
13.03.2010 16:00 4,6 C 67 % 1017,4 hPa 0,0 l/m 14,4 km/h W-NW -1,0 C -1,1 C 36,6 km/h
13.03.2010 17:00 3,9 C 72 % 1017,8 hPa 0,0 l/m 14,4 km/h W-NW -0,7 C -1,9 C 32,2 km/h
13.03.2010 18:00 3,7 C 73 % 1018,3 hPa 0,0 l/m 12,8 km/h W -0,7 C -1,2 C 33,0 km/h
13.03.2010 19:00 3,7 C 72 % 1018,5 hPa 0,0 l/m 13,5 km/h W-SW -0,8 C -1,7 C 31,4 km/h
13.03.2010 20:00 3,5 C 73 % 1018,7 hPa 0,0 l/m 11,6 km/h NW -0,8 C -0,5 C 27,0 km/h
13.03.2010 21:00 3,6 C 73 % 1018,8 hPa 0,0 l/m 11,9 km/h SW -0,8 C -0,7 C 31,0 km/h
13.03.2010 22:00 4,0 C 70 % 1018,6 hPa 0,0 l/m 13,8 km/h W-NW -1,1 C -1,5 C 32,2 km/h
13.03.2010 23:00 4,1 C 69 % 1018,3 hPa 0,0 l/m 15,0 km/h W -1,1 C -2,0 C 36,6 km/h
14.03.2010 00:00 3,8 C 70 % 1017,8 hPa 0,0 l/m 14,0 km/h W-NW -1,1 C -1,8 C 33,0 km/h
14.03.2010 01:00 3,8 C 70 % 1017,6 hPa 0,0 l/m 16,1 km/h W -1,2 C -3,0 C 39,4 km/h
14.03.2010 02:00 4,0 C 69 % 1017,4 hPa 0,0 l/m 17,0 km/h W-NW -1,2 C -3,1 C 39,0 km/h
14.03.2010 03:00 3,8 C 69 % 1016,8 hPa 0,0 l/m 16,2 km/h W-NW -1,4 C -2,9 C 37,0 km/h
14.03.2010 04:00 3,9 C 68 % 1016,8 hPa 0,0 l/m 17,3 km/h W-SW -1,4 C -3,3 C 37,8 km/h
14.03.2010 05:00 4,1 C 68 % 1016,8 hPa 0,0 l/m 18,1 km/h W-NW -1,3 C -3,6 C 47,1 km/h
14.03.2010 06:00 4,2 C 68 % 1017,3 hPa 0,0 l/m 16,0 km/h W -1,2 C -2,3 C 37,0 km/h
14.03.2010 07:00 4,3 C 69 % 1017,5 hPa 0,0 l/m 14,8 km/h W -0,8 C -1,6 C 37,8 km/h
14.03.2010 08:00 4,7 C 69 % 1017,5 hPa 0,0 l/m 16,4 km/h NW -0,6 C -2,0 C 37,4 km/h
14.03.2010 09:00 5,6 C 66 % 1017,8 hPa 0,0 l/m 16,0 km/h W-NW -0,3 C -0,6 C 39,8 km/h
14.03.2010 10:00 5,7 C 66 % 1018,0 hPa 0,0 l/m 16,9 km/h W -0,2 C -0,9 C 38,6 km/h
14.03.2010 11:00 6,5 C 63 % 1017,8 hPa 0,0 l/m 18,8 km/h W-SW -0,1 C -0,8 C 40,6 km/h
14.03.2010 12:00 7,0 C 60 % 1017,8 hPa 0,0 l/m 18,2 km/h W -0,2 C 0,0 C 43,1 km/h
14.03.2010 13:00 6,9 C 60 % 1017,3 hPa 0,0 l/m 18,2 km/h NW -0,3 C -0,0 C 40,6 km/h
14.03.2010 14:00 6,6 C 61 % 1016,8 hPa 0,0 l/m 18,1 km/h W -0,4 C -0,3 C 41,4 km/h
14.03.2010 15:00 6,5 C 60 % 1016,6 hPa 0,0 l/m 16,1 km/h W -0,8 C 0,4 C 38,2 km/h
14.03.2010 16:00 6,0 C 61 % 1016,6 hPa 0,0 l/m 15,1 km/h NW -1,0 C 0,2 C 37,4 km/h
14.03.2010 17:00 5,1 C 65 % 1016,1 hPa 0,0 l/m 16,1 km/h W-SW -1,0 C -1,3 C 42,3 km/h
14.03.2010 18:00 4,8 C 67 % 1015,8 hPa 0,0 l/m 19,1 km/h W-NW -0,9 C -3,1 C 42,7 km/h
14.03.2010 19:00 4,6 C 68 % 1015,5 hPa 0,0 l/m 18,1 km/h W -0,8 C -2,9 C 43,5 km/h
14.03.2010 20:00 4,4 C 69 % 1015,4 hPa 0,0 l/m 16,5 km/h W-NW -0,8 C -2,5 C 35,4 km/h
14.03.2010 21:00 4,3 C 69 % 1014,8 hPa 0,0 l/m 16,4 km/h W -0,8 C -2,4 C 39,0 km/h
14.03.2010 22:00 4,4 C 68 % 1014,4 hPa 0,0 l/m 16,7 km/h W -1,0 C -2,5 C 41,9 km/h
14.03.2010 23:00 4,4 C 68 % 1013,8 hPa 0,0 l/m 19,6 km/h W -1,0 C -3,8 C 41,8 km/h
Min-Datum _ 08.03.10 09.03.10 11.03.10 - 08.03.10 - 09.03.10 08.03.10 08.03.10
_ Min-Zeit 06:45 14:30 16:00 - 02:00 - 14:30 06:45 02:00
Minimum _ -8,2 C 30 % 1012,2 hPa - 0,0 km/h - -13,8 C -8,2 C 0,0 km/h
Max-Datum _ 14.03.10 11.03.10 08.03.10 11.03.10 14.03.10 - 14.03.10 10.03.10 14.03.10
_ Max-Zeit 11:30 09:45 00:00 11:15 23:45 - 10:45 15:15 05:15
Maximum _ 7,2 C 90 % 1028,4 hPa 0,8 l/m 21,1 km/h
W
- 0,1 C 3,2 C 61,2 km/h
W-SW
Durchschnitt _ 0,3 C 67 % 1019,3 hPa #2,6 l/m 6,6 km/h W -5,3 C -1,7 C 17,5 km/h